Flight Track Log - Related Links

Times and Time Zones

All times are in EDT time to prevent confusion due to time zone crossing. See the CFS671 flight status page for this flight to view local times or setup timezone preferences in your user account.

Time Position Orientation Groundspeed Altitude Reporting Facility
EDT Latitude Longitude Course Direction KTS MPH feet Rate Location/Type
Fri 07:20:22 PM 42.2833 -121.7747 349° North 138 159 9,900  Level Seattle Center
Fri 07:21:23 PM 42.3217 -121.7844 349° North 140 161 10,500 295 Climbing Seattle Center
Fri 07:22:24 PM 42.3633 -121.7978 347° North 146 168 10,500  Level Seattle Center
Fri 07:23:25 PM 42.4067 -121.8117 347° North 154 177 10,500  Level Seattle Center
Fri 07:24:26 PM 42.4508 -121.8250 347° North 159 183 10,500  Level Seattle Center
Fri 07:25:27 PM 42.4942 -121.8381 347° North 160 184 10,500  Level Seattle Center
Fri 07:26:28 PM 42.5389 -121.8503 349° North 162 186 10,500  Level Seattle Center
Fri 07:27:30 PM 42.5819 -121.8628 348° North 161 185 10,500  Level Seattle Center
Fri 07:28:31 PM 42.6353 -121.8778 348° North 162 186 10,500  Level Seattle Center
Fri 07:29:32 PM 42.6783 -121.8906 348° North 160 184 10,500  Level Seattle Center
Fri 07:30:33 PM 42.7231 -121.9025 349° North 162 186 10,500  Level Seattle Center
Fri 07:31:34 PM 42.7675 -121.9153 348° North 163 188 10,500  Level Seattle Center
Fri 07:32:35 PM 42.8114 -121.9275 348° North 162 186 10,500  Level Seattle Center
Fri 07:33:36 PM 42.8556 -121.9394 349° North 163 188 10,500  Level Seattle Center
Fri 07:34:37 PM 42.9003 -121.9533 347° North 167 192 10,500  Level Seattle Center
Fri 07:35:39 PM 42.9439 -121.9661 348° North 163 188 10,500  Level Seattle Center
Fri 07:36:40 PM 42.9881 -121.9800 347° North 162 186 10,500  Level Seattle Center
Fri 07:37:41 PM 43.0333 -121.9925 349° North 164 189 10,500  Level Seattle Center
Fri 07:38:42 PM 43.0872 -122.0086 348° North 166 191 10,500  Level Seattle Center
Fri 07:39:43 PM 43.1325 -122.0189 351° North 164 189 10,500 -49 Level Seattle Center
Fri 07:40:44 PM 43.1781 -122.0347 346° North 169 194 10,400 -49 Descending Seattle Center
Fri 07:41:46 PM 43.2219 -122.0458 350° North 163 188 10,400  Level Seattle Center
Fri 07:42:47 PM 43.2661 -122.0569 350° North 161 185 10,400  Level Seattle Center
Fri 07:43:48 PM 43.3139 -122.0711 348° North 159 183 10,400  Level Seattle Center
Fri 07:44:49 PM 43.3581 -122.0850 347° North 161 185 10,400  Level Seattle Center
Fri 07:45:50 PM 43.4031 -122.0969 349° North 164 189 10,400  Level Seattle Center
Fri 07:46:51 PM 43.4469 -122.1103 348° North 163 188 10,400  Level Seattle Center
Fri 07:47:53 PM 43.4903 -122.1242 347° North 161 185 10,400  Level Seattle Center
Fri 07:48:54 PM 43.5356 -122.1364 349° North 163 188 10,400 49 Level Seattle Center
Fri 07:49:55 PM 43.5786 -122.1492 348° North 161 185 10,500 49 Climbing Seattle Center
Fri 07:50:56 PM 43.6217 -122.1631 347° North 160 184 10,500  Level Seattle Center
Fri 07:51:57 PM 43.6669 -122.1753 349° North 163 188 10,500  Level Seattle Center
Fri 07:52:59 PM 43.7128 -122.1861 350° North 165 190 10,500  Level Seattle Center
Fri 07:54:00 PM 43.7572 -122.1997 348° North 165 190 10,500  Level Seattle Center
Fri 07:55:01 PM 43.8092 -122.2147 348° North 163 188 10,500  Level Seattle Center
Fri 07:56:02 PM 43.8556 -122.2275 349° North 167 192 10,500  Level Seattle Center
Fri 07:57:04 PM 43.8986 -122.2408 347° North 163 188 10,500  Level Seattle Center
Fri 07:58:05 PM 43.9425 -122.2536 348° North 161 185 10,500  Level Seattle Center
Fri 07:59:06 PM 43.9861 -122.2664 348° North 161 185 10,500  Level Seattle Center
Fri 08:00:10 PM 44.0294 -122.2800 347° North 160 184 10,500  Level Seattle Center
Fri 08:01:11 PM 44.0717 -122.2931 347° North 158 182 10,500  Level Seattle Center
Fri 08:02:12 PM 44.1236 -122.3072 349° North 159 183 10,500  Level Seattle Center
Fri 08:03:13 PM 44.1653 -122.3203 347° North 157 181 10,500  Level Seattle Center
Fri 08:04:15 PM 44.2083 -122.3342 347° North 156 180 10,500  Level Seattle Center
Fri 08:05:16 PM 44.2500 -122.3461 348° North 157 181 10,500  Level Seattle Center
Fri 08:06:17 PM 44.2908 -122.3586 348° North 152 175 10,500  Level Seattle Center
Fri 08:07:18 PM 44.3325 -122.3722 347° North 154 177 10,500  Level Seattle Center
Fri 08:08:19 PM 44.3764 -122.3850 348° North 157 181 10,500  Level Seattle Center
Fri 08:09:20 PM 44.4211 -122.3983 348° North 164 189 10,500  Level Seattle Center
Fri 08:10:22 PM 44.4653 -122.4122 347° North 163 188 10,500  Level Seattle Center
Fri 08:11:23 PM 44.5089 -122.4247 348° North 161 185 10,500  Level Seattle Center
Fri 08:12:24 PM 44.5617 -122.4417 347° North 162 186 10,500  Level Seattle Center
Fri 08:13:25 PM 44.6058 -122.4550 348° North 162 186 10,500  Level Seattle Center
Fri 08:14:11 PM 44.6372 -122.4664 346° North 159 183 10,500  Level Seattle Center
Fri 08:14:26 PM 44.6475 -122.4672 357° North 160 184 10,500  Level Seattle Center
Fri 08:14:54 PM 44.6653 -122.4764 340° North 157 181 10,500  Level Seattle Center
Fri 08:15:27 PM 44.6903 -122.4811 352° North 160 184 10,500  Level Seattle Center
Fri 08:15:55 PM 44.7097 -122.4919 338° Northwest 159 183 10,500  Level Seattle Center
Fri 08:16:28 PM 44.7336 -122.4939 357° North 160 184 10,500  Level Seattle Center
Fri 08:16:56 PM 44.7556 -122.5039 342° North 159 183 10,500  Level Seattle Center
Fri 08:17:30 PM 44.7761 -122.5072 353° North 157 181 10,500  Level Seattle Center
Fri 08:17:56 PM 44.7994 -122.5164 344° North 159 183 10,500 -295 Level Seattle Center
Fri 08:18:31 PM 44.8206 -122.5186 356° North 163 188 10,200 -590 Descending Seattle Center
Fri 08:18:57 PM 44.8461 -122.5219 355° North 181 208 9,900 -590 Descending Seattle Center
Fri 08:19:32 PM 44.8689 -122.5219 360° North 173 199 9,600 -627 Descending Seattle Center
Fri 08:20:04 PM 44.9039 -122.5292 352° North 179 206 9,200 -590 Descending Seattle Center
Fri 08:20:33 PM 44.9181 -122.5281 North 177 204 9,000 -689 Descending Seattle Center
Fri 08:21:05 PM 44.9525 -122.5336 353° North 179 206 8,500 -590 Descending Seattle Center
Fri 08:21:34 PM 44.9681 -122.5319 North 180 207 8,400 -655 Descending Seattle Center
Fri 08:22:00 PM 44.9986 -122.5364 354° North 179 206 7,900 -885 Descending Seattle Center
Fri 08:22:35 PM 45.0269 -122.5361 360° North 178 205 7,500 -689 Descending Seattle Center
Fri 08:23:01 PM 45.0497 -122.5431 348° North 182 209 7,200 -677 Descending Seattle Center
Fri 08:23:37 PM 45.0772 -122.5456 356° North 180 207 6,800 -800 Descending Seattle Center
Fri 08:24:01 PM 45.0983 -122.5478 356° North 179 206 6,400 -984 Descending Seattle Center
Fri 08:24:38 PM 45.1272 -122.5506 356° North 181 208 5,800 -982 Descending Seattle Center
Fri 08:24:56 PM 45.1456 -122.5561 348° North 183 211 5,500 -984 Descending Seattle Center
Fri 08:25:39 PM 45.1789 -122.5569 359° North 183 211 4,800 -1,082 Descending Seattle Center
Fri 08:25:57 PM 45.1983 -122.5592 355° North 193 222 4,400 -885 Descending Seattle Center
Fri 08:26:40 PM 45.2317 -122.5617 357° North 189 217 3,900 -764 Descending Seattle Center
Fri 08:26:52 PM 45.2469 -122.5642 353° North 190 219 3,700 -590 Descending Seattle Center
Fri 08:27:41 PM 45.2825 -122.5667 357° North 186 214 3,300 -590 Descending Seattle Center
Fri 08:27:53 PM 45.2956 -122.5689 353° North 174 200 3,100 -295 Descending Seattle Center
Fri 08:28:42 PM 45.3283 -122.5711 357° North 173 199 3,000 -182 Descending Seattle Center
Fri 08:28:59 PM 45.3464 -122.5728 356° North 164 189 2,900 -295 Descending Seattle Center
Fri 08:29:43 PM 45.3742 -122.5742 358° North 168 193 2,700 -327 Descending Seattle Center
Fri 08:29:54 PM 45.3864 -122.5778 348° North 164 189 2,600 -167 Descending Seattle Center
Fri 08:30:55 PM 45.4356 -122.5856 354° North 161 185 2,500 -246 Descending Seattle Center
Fri 08:31:56 PM 45.4808 -122.5947 352° North 166 191 2,100 -482 Descending Seattle Center
Fri 08:32:47 PM 45.5189 -122.6033 351° North 166 191 1,600 -667 Descending Seattle Center
Fri 08:32:50 PM 45.5219 -122.6058 330° Northwest 168 193 1,500 -590 Descending Seattle Center
Fri 08:33:48 PM 45.5617 -122.6178 348° North 164 189 1,000 -590 Descending Seattle Center
Fri 08:33:51 PM 45.5639 -122.6194 332° Northwest 139 160 900 -197 Descending Seattle Center
Fri 08:34:49 PM 45.6031 -122.6314 348° North 163 188 800 -103 Descending Seattle Center
Fri 08:36:00 PM 45.5887 -122.5969 180° South  Level Estimated

Login

Don't have an account? Register now (free) for customized features, flight alerts, and more!